sensor_id;sensor_type;location;lat;lon;timestamp;pressure;altitude;pressure_sealevel;temperature;humidity
12360;BME280;6244;51.460;7.090;2022-11-15T00:01:09;49026.38;;;-141.68;65.78
12360;BME280;6244;51.460;7.090;2022-11-15T00:06:10;49024.41;;;-141.68;65.80
12360;BME280;6244;51.460;7.090;2022-11-15T00:11:10;49022.41;;;-141.68;65.85
12360;BME280;6244;51.460;7.090;2022-11-15T00:16:08;49022.41;;;-141.68;65.84
12360;BME280;6244;51.460;7.090;2022-11-15T00:21:07;49026.38;;;-141.68;65.57
12360;BME280;6244;51.460;7.090;2022-11-15T00:26:04;49024.41;;;-141.68;65.94
12360;BME280;6244;51.460;7.090;2022-11-15T00:31:03;49026.38;;;-141.68;65.86
12360;BME280;6244;51.460;7.090;2022-11-15T00:36:01;49022.41;;;-141.68;65.67
12360;BME280;6244;51.460;7.090;2022-11-15T00:40:59;49024.41;;;-141.68;65.69
12360;BME280;6244;51.460;7.090;2022-11-15T00:45:56;49022.41;;;-141.68;65.77
12360;BME280;6244;51.460;7.090;2022-11-15T00:50:54;49024.41;;;-141.68;65.47
12360;BME280;6244;51.460;7.090;2022-11-15T00:55:50;49022.41;;;-141.68;65.67
12360;BME280;6244;51.460;7.090;2022-11-15T01:00:47;49024.41;;;-141.68;65.77
12360;BME280;6244;51.460;7.090;2022-11-15T01:05:43;49026.38;;;-141.68;65.80
12360;BME280;6244;51.460;7.090;2022-11-15T01:10:42;49026.38;;;-141.68;65.76
12360;BME280;6244;51.460;7.090;2022-11-15T01:15:39;49026.38;;;-141.68;65.65
12360;BME280;6244;51.460;7.090;2022-11-15T01:20:39;49026.38;;;-141.68;65.52
12360;BME280;6244;51.460;7.090;2022-11-15T01:25:36;49026.38;;;-141.68;65.78
12360;BME280;6244;51.460;7.090;2022-11-15T01:30:35;49024.41;;;-141.68;65.72
12360;BME280;6244;51.460;7.090;2022-11-15T01:35:32;49026.38;;;-141.68;65.91
12360;BME280;6244;51.460;7.090;2022-11-15T01:40:28;49024.41;;;-141.68;65.89
12360;BME280;6244;51.460;7.090;2022-11-15T01:45:25;49024.41;;;-141.68;65.99
12360;BME280;6244;51.460;7.090;2022-11-15T01:50:26;49024.41;;;-141.68;66.08
12360;BME280;6244;51.460;7.090;2022-11-15T01:55:26;49024.41;;;-141.68;65.88
12360;BME280;6244;51.460;7.090;2022-11-15T02:00:23;49024.41;;;-141.68;65.96
12360;BME280;6244;51.460;7.090;2022-11-15T02:05:20;49026.38;;;-141.68;65.69
12360;BME280;6244;51.460;7.090;2022-11-15T02:10:19;49026.38;;;-141.68;65.70
12360;BME280;6244;51.460;7.090;2022-11-15T02:15:17;49026.38;;;-141.68;66.02
12360;BME280;6244;51.460;7.090;2022-11-15T02:26:16;49024.41;;;-141.68;66.08
12360;BME280;6244;51.460;7.090;2022-11-15T02:31:24;49026.38;;;-141.68;65.82
12360;BME280;6244;51.460;7.090;2022-11-15T02:36:33;49024.41;;;-141.68;65.74
12360;BME280;6244;51.460;7.090;2022-11-15T02:41:34;49024.41;;;-141.68;66.25
12360;BME280;6244;51.460;7.090;2022-11-15T02:46:36;49024.41;;;-141.68;66.50
12360;BME280;6244;51.460;7.090;2022-11-15T02:51:54;49024.41;;;-141.68;66.53
12360;BME280;6244;51.460;7.090;2022-11-15T02:56:53;49024.41;;;-141.68;66.42
12360;BME280;6244;51.460;7.090;2022-11-15T03:01:59;49026.38;;;-141.68;66.13
12360;BME280;6244;51.460;7.090;2022-11-15T03:07:06;49024.41;;;-141.68;65.90
12360;BME280;6244;51.460;7.090;2022-11-15T03:12:12;49024.41;;;-141.68;66.11
12360;BME280;6244;51.460;7.090;2022-11-15T03:17:17;49024.41;;;-141.68;66.18
12360;BME280;6244;51.460;7.090;2022-11-15T03:22:16;49026.38;;;-141.68;66.24
12360;BME280;6244;51.460;7.090;2022-11-15T03:27:16;49024.41;;;-141.68;66.26
12360;BME280;6244;51.460;7.090;2022-11-15T03:32:19;49024.41;;;-141.68;66.26
12360;BME280;6244;51.460;7.090;2022-11-15T03:37:17;49026.38;;;-141.68;66.06
12360;BME280;6244;51.460;7.090;2022-11-15T03:42:21;49022.41;;;-141.68;66.12
12360;BME280;6244;51.460;7.090;2022-11-15T03:47:27;49026.38;;;-141.68;66.10
12360;BME280;6244;51.460;7.090;2022-11-15T03:52:25;49026.38;;;-141.68;65.97
12360;BME280;6244;51.460;7.090;2022-11-15T03:57:21;49026.38;;;-141.68;65.97
12360;BME280;6244;51.460;7.090;2022-11-15T04:02:18;49024.41;;;-141.68;66.15
12360;BME280;6244;51.460;7.090;2022-11-15T04:07:16;49026.38;;;-141.68;66.23
12360;BME280;6244;51.460;7.090;2022-11-15T04:12:12;49024.41;;;-141.68;66.13
12360;BME280;6244;51.460;7.090;2022-11-15T04:17:25;49022.41;;;-141.68;66.34
12360;BME280;6244;51.460;7.090;2022-11-15T04:22:23;49022.41;;;-141.68;66.35
12360;BME280;6244;51.460;7.090;2022-11-15T04:27:37;49024.41;;;-141.68;66.27
12360;BME280;6244;51.460;7.090;2022-11-15T04:32:34;49024.41;;;-141.68;66.40
12360;BME280;6244;51.460;7.090;2022-11-15T04:37:32;49026.38;;;-141.68;66.16
12360;BME280;6244;51.460;7.090;2022-11-15T04:42:28;49022.41;;;-141.68;66.36
12360;BME280;6244;51.460;7.090;2022-11-15T04:47:25;49024.41;;;-141.68;66.48
12360;BME280;6244;51.460;7.090;2022-11-15T04:52:22;49026.38;;;-141.68;66.37
12360;BME280;6244;51.460;7.090;2022-11-15T04:57:20;49026.38;;;-141.68;66.34
12360;BME280;6244;51.460;7.090;2022-11-15T05:02:17;49026.38;;;-141.68;66.17
12360;BME280;6244;51.460;7.090;2022-11-15T05:07:13;49026.38;;;-141.68;66.46
12360;BME280;6244;51.460;7.090;2022-11-15T05:12:10;49024.41;;;-141.68;66.76
12360;BME280;6244;51.460;7.090;2022-11-15T05:17:08;49024.41;;;-141.68;66.56
12360;BME280;6244;51.460;7.090;2022-11-15T05:22:04;49024.41;;;-141.68;66.65
12360;BME280;6244;51.460;7.090;2022-11-15T05:27:01;49024.41;;;-141.68;67.03
12360;BME280;6244;51.460;7.090;2022-11-15T05:31:57;49026.38;;;-141.68;67.56
12360;BME280;6244;51.460;7.090;2022-11-15T05:36:55;49026.38;;;-141.68;68.16
12360;BME280;6244;51.460;7.090;2022-11-15T05:41:54;49024.41;;;-141.68;68.99
12360;BME280;6244;51.460;7.090;2022-11-15T05:46:54;49024.41;;;-141.68;69.31
12360;BME280;6244;51.460;7.090;2022-11-15T05:51:52;49024.41;;;-141.68;69.83
12360;BME280;6244;51.460;7.090;2022-11-15T05:56:51;49024.41;;;-141.68;70.15
12360;BME280;6244;51.460;7.090;2022-11-15T06:01:49;49022.41;;;-141.68;70.34
12360;BME280;6244;51.460;7.090;2022-11-15T06:06:45;49026.38;;;-141.68;70.52
12360;BME280;6244;51.460;7.090;2022-11-15T06:11:42;49024.41;;;-141.68;70.40
12360;BME280;6244;51.460;7.090;2022-11-15T06:16:40;49022.41;;;-141.68;70.75
12360;BME280;6244;51.460;7.090;2022-11-15T06:21:36;49024.41;;;-141.68;70.67
12360;BME280;6244;51.460;7.090;2022-11-15T06:26:33;49022.41;;;-141.68;70.61
12360;BME280;6244;51.460;7.090;2022-11-15T06:31:29;49024.41;;;-141.68;70.01
12360;BME280;6244;51.460;7.090;2022-11-15T06:36:27;49026.38;;;-141.68;69.65
12360;BME280;6244;51.460;7.090;2022-11-15T06:41:24;49024.41;;;-141.68;69.62
12360;BME280;6244;51.460;7.090;2022-11-15T06:46:21;49024.41;;;-141.68;68.99
12360;BME280;6244;51.460;7.090;2022-11-15T06:51:17;49024.41;;;-141.68;68.99
12360;BME280;6244;51.460;7.090;2022-11-15T06:56:15;49022.41;;;-141.68;68.44
12360;BME280;6244;51.460;7.090;2022-11-15T07:01:12;49024.41;;;-141.68;68.25
12360;BME280;6244;51.460;7.090;2022-11-15T07:06:09;49026.38;;;-141.68;67.73
12360;BME280;6244;51.460;7.090;2022-11-15T07:11:09;49026.38;;;-141.68;67.11
12360;BME280;6244;51.460;7.090;2022-11-15T07:16:08;49026.38;;;-141.68;66.55
12360;BME280;6244;51.460;7.090;2022-11-15T07:21:07;49026.38;;;-141.68;66.11
12360;BME280;6244;51.460;7.090;2022-11-15T07:26:06;49024.41;;;-141.68;65.54
12360;BME280;6244;51.460;7.090;2022-11-15T07:31:03;49024.41;;;-141.68;65.39
12360;BME280;6244;51.460;7.090;2022-11-15T07:36:02;49024.41;;;-141.68;65.12
12360;BME280;6244;51.460;7.090;2022-11-15T07:41:00;49022.41;;;-141.68;64.74
12360;BME280;6244;51.460;7.090;2022-11-15T07:45:57;49024.41;;;-141.68;64.70
12360;BME280;6244;51.460;7.090;2022-11-15T07:50:53;49022.41;;;-141.68;64.80
12360;BME280;6244;51.460;7.090;2022-11-15T07:55:51;49024.41;;;-141.68;64.77
12360;BME280;6244;51.460;7.090;2022-11-15T08:00:48;49024.41;;;-141.68;64.62
12360;BME280;6244;51.460;7.090;2022-11-15T08:05:50;49024.41;;;-141.68;64.42
12360;BME280;6244;51.460;7.090;2022-11-15T08:10:46;49024.41;;;-141.68;63.55
12360;BME280;6244;51.460;7.090;2022-11-15T08:15:44;49024.41;;;-141.68;63.29
12360;BME280;6244;51.460;7.090;2022-11-15T08:20:41;49024.41;;;-141.68;63.06
12360;BME280;6244;51.460;7.090;2022-11-15T08:25:38;49024.41;;;-141.68;62.47
12360;BME280;6244;51.460;7.090;2022-11-15T08:30:36;49024.41;;;-141.68;61.74
12360;BME280;6244;51.460;7.090;2022-11-15T08:35:38;49022.41;;;-141.68;61.58
12360;BME280;6244;51.460;7.090;2022-11-15T08:40:35;49022.41;;;-141.68;61.37
12360;BME280;6244;51.460;7.090;2022-11-15T08:45:33;49026.38;;;-141.68;61.20
12360;BME280;6244;51.460;7.090;2022-11-15T08:50:30;49024.41;;;-141.68;61.15
12360;BME280;6244;51.460;7.090;2022-11-15T08:55:28;49024.41;;;-141.68;60.78
12360;BME280;6244;51.460;7.090;2022-11-15T09:00:24;49022.41;;;-141.68;60.68
12360;BME280;6244;51.460;7.090;2022-11-15T09:05:21;49022.41;;;-141.68;60.15
12360;BME280;6244;51.460;7.090;2022-11-15T09:10:18;49026.38;;;-141.68;59.23
12360;BME280;6244;51.460;7.090;2022-11-15T09:15:17;49026.38;;;-141.68;57.90
12360;BME280;6244;51.460;7.090;2022-11-15T09:20:15;49026.38;;;-141.68;58.23
12360;BME280;6244;51.460;7.090;2022-11-15T09:25:12;49024.41;;;-141.68;58.40
12360;BME280;6244;51.460;7.090;2022-11-15T09:30:09;49024.41;;;-141.68;58.12
12360;BME280;6244;51.460;7.090;2022-11-15T09:35:07;49024.41;;;-141.68;58.28
12360;BME280;6244;51.460;7.090;2022-11-15T09:40:05;49024.41;;;-141.68;60.42
12360;BME280;6244;51.460;7.090;2022-11-15T09:45:11;49022.41;;;-141.68;59.02
12360;BME280;6244;51.460;7.090;2022-11-15T09:50:15;49024.41;;;-141.68;57.86
12360;BME280;6244;51.460;7.090;2022-11-15T09:55:14;49024.41;;;-141.68;60.71
12360;BME280;6244;51.460;7.090;2022-11-15T10:00:19;49028.38;;;-141.68;61.29
12360;BME280;6244;51.460;7.090;2022-11-15T10:05:20;49026.38;;;-141.68;60.88
12360;BME280;6244;51.460;7.090;2022-11-15T10:10:25;49024.41;;;-141.68;60.84
12360;BME280;6244;51.460;7.090;2022-11-15T10:15:23;49026.38;;;-141.68;60.86
12360;BME280;6244;51.460;7.090;2022-11-15T10:20:24;49022.41;;;-141.68;61.66
12360;BME280;6244;51.460;7.090;2022-11-15T10:25:23;49024.41;;;-141.68;61.13
12360;BME280;6244;51.460;7.090;2022-11-15T10:30:20;49026.38;;;-141.68;60.09
12360;BME280;6244;51.460;7.090;2022-11-15T10:35:20;49024.41;;;-141.68;59.65
12360;BME280;6244;51.460;7.090;2022-11-15T10:40:22;49026.38;;;-141.68;60.95
12360;BME280;6244;51.460;7.090;2022-11-15T10:45:27;49024.41;;;-141.68;57.33
12360;BME280;6244;51.460;7.090;2022-11-15T10:50:29;49024.41;;;-141.68;56.83
12360;BME280;6244;51.460;7.090;2022-11-15T10:55:29;49024.41;;;-141.68;57.19
12360;BME280;6244;51.460;7.090;2022-11-15T11:00:30;49024.41;;;-141.68;50.40
12360;BME280;6244;51.460;7.090;2022-11-15T11:05:30;49028.38;;;-141.68;46.00
12360;BME280;6244;51.460;7.090;2022-11-15T11:10:30;49026.38;;;-141.68;40.89
12360;BME280;6244;51.460;7.090;2022-11-15T11:15:27;49026.38;;;-141.68;38.74
12360;BME280;6244;51.460;7.090;2022-11-15T11:20:28;49024.41;;;-141.68;42.78
12360;BME280;6244;51.460;7.090;2022-11-15T11:25:34;49026.38;;;-141.68;40.24
12360;BME280;6244;51.460;7.090;2022-11-15T11:30:40;49026.38;;;-141.68;36.02
12360;BME280;6244;51.460;7.090;2022-11-15T11:35:44;49026.38;;;-141.68;37.15
12360;BME280;6244;51.460;7.090;2022-11-15T11:40:54;49022.41;;;-141.68;35.29
12360;BME280;6244;51.460;7.090;2022-11-15T11:46:35;49026.38;;;-141.68;37.71
12360;BME280;6244;51.460;7.090;2022-11-15T11:51:36;49024.41;;;-141.68;38.09
12360;BME280;6244;51.460;7.090;2022-11-15T11:56:38;49024.41;;;-141.68;39.78
12360;BME280;6244;51.460;7.090;2022-11-15T12:01:39;49028.38;;;-141.68;38.35
12360;BME280;6244;51.460;7.090;2022-11-15T12:06:41;49024.41;;;-141.68;40.63
12360;BME280;6244;51.460;7.090;2022-11-15T12:11:49;49026.38;;;-141.68;43.73
12360;BME280;6244;51.460;7.090;2022-11-15T12:16:47;49026.38;;;-141.68;42.73
12360;BME280;6244;51.460;7.090;2022-11-15T12:21:46;49026.38;;;-141.68;43.11
12360;BME280;6244;51.460;7.090;2022-11-15T12:26:49;49022.41;;;-141.68;44.33
12360;BME280;6244;51.460;7.090;2022-11-15T12:31:50;49024.41;;;-141.68;49.08
12360;BME280;6244;51.460;7.090;2022-11-15T12:36:49;49026.38;;;-141.68;46.43
12360;BME280;6244;51.460;7.090;2022-11-15T12:47:35;49024.41;;;-141.68;48.55
12360;BME280;6244;51.460;7.090;2022-11-15T12:52:31;49022.41;;;-141.68;49.93
12360;BME280;6244;51.460;7.090;2022-11-15T12:57:37;49026.38;;;-141.68;49.30
12360;BME280;6244;51.460;7.090;2022-11-15T13:02:36;49026.38;;;-141.68;51.46
12360;BME280;6244;51.460;7.090;2022-11-15T13:07:56;49024.41;;;-141.68;53.68
12360;BME280;6244;51.460;7.090;2022-11-15T13:12:58;49024.41;;;-141.68;53.21
12360;BME280;6244;51.460;7.090;2022-11-15T13:17:55;49024.41;;;-141.68;54.00
12360;BME280;6244;51.460;7.090;2022-11-15T13:22:59;49022.41;;;-141.68;55.01
12360;BME280;6244;51.460;7.090;2022-11-15T13:27:58;49026.38;;;-141.68;56.50
12360;BME280;6244;51.460;7.090;2022-11-15T13:32:59;49026.38;;;-141.68;57.11
12360;BME280;6244;51.460;7.090;2022-11-15T13:38:04;49024.41;;;-141.68;57.69
12360;BME280;6244;51.460;7.090;2022-11-15T13:43:26;49024.41;;;-141.68;59.26
12360;BME280;6244;51.460;7.090;2022-11-15T13:48:24;49026.38;;;-141.68;59.68
12360;BME280;6244;51.460;7.090;2022-11-15T13:53:20;49026.38;;;-141.68;60.06
12360;BME280;6244;51.460;7.090;2022-11-15T13:58:18;49024.41;;;-141.68;60.78
12360;BME280;6244;51.460;7.090;2022-11-15T14:03:18;49026.38;;;-141.68;60.92
12360;BME280;6244;51.460;7.090;2022-11-15T14:08:23;49024.41;;;-141.68;61.10
12360;BME280;6244;51.460;7.090;2022-11-15T14:13:29;49022.41;;;-141.68;61.04
12360;BME280;6244;51.460;7.090;2022-11-15T14:18:44;49024.41;;;-141.68;60.90
12360;BME280;6244;51.460;7.090;2022-11-15T14:23:41;49024.41;;;-141.68;60.73
12360;BME280;6244;51.460;7.090;2022-11-15T14:28:39;49026.38;;;-141.68;59.98
12360;BME280;6244;51.460;7.090;2022-11-15T14:33:37;49024.41;;;-141.68;59.40
12360;BME280;6244;51.460;7.090;2022-11-15T14:38:34;49022.41;;;-141.68;58.68
12360;BME280;6244;51.460;7.090;2022-11-15T14:43:30;49024.41;;;-141.68;58.03
12360;BME280;6244;51.460;7.090;2022-11-15T14:48:29;49026.38;;;-141.68;57.92
12360;BME280;6244;51.460;7.090;2022-11-15T14:53:25;49024.41;;;-141.68;57.52
12360;BME280;6244;51.460;7.090;2022-11-15T14:58:22;49026.38;;;-141.68;57.05
12360;BME280;6244;51.460;7.090;2022-11-15T15:03:18;49024.41;;;-141.68;57.23
12360;BME280;6244;51.460;7.090;2022-11-15T15:08:16;49024.41;;;-141.68;57.00
12360;BME280;6244;51.460;7.090;2022-11-15T15:13:16;49024.41;;;-141.68;56.79
12360;BME280;6244;51.460;7.090;2022-11-15T15:18:13;49026.38;;;-141.68;56.60
12360;BME280;6244;51.460;7.090;2022-11-15T15:23:16;49024.41;;;-141.68;56.26
12360;BME280;6244;51.460;7.090;2022-11-15T15:28:13;49026.38;;;-141.68;56.21
12360;BME280;6244;51.460;7.090;2022-11-15T15:33:10;49024.41;;;-141.68;55.90
12360;BME280;6244;51.460;7.090;2022-11-15T15:38:09;49024.41;;;-141.68;55.93
12360;BME280;6244;51.460;7.090;2022-11-15T15:43:08;49024.41;;;-141.68;55.94
12360;BME280;6244;51.460;7.090;2022-11-15T15:48:05;49026.38;;;-141.68;55.90
12360;BME280;6244;51.460;7.090;2022-11-15T15:53:03;49024.41;;;-141.68;56.01
12360;BME280;6244;51.460;7.090;2022-11-15T15:58:00;49024.41;;;-141.68;55.95
12360;BME280;6244;51.460;7.090;2022-11-15T16:02:58;49024.41;;;-141.68;55.78
12360;BME280;6244;51.460;7.090;2022-11-15T16:07:54;49022.41;;;-141.68;55.84
12360;BME280;6244;51.460;7.090;2022-11-15T16:12:51;49026.38;;;-141.68;55.91
12360;BME280;6244;51.460;7.090;2022-11-15T16:17:50;49024.41;;;-141.68;55.75
12360;BME280;6244;51.460;7.090;2022-11-15T16:22:48;49024.41;;;-141.68;55.77
12360;BME280;6244;51.460;7.090;2022-11-15T16:27:45;49024.41;;;-141.68;55.77
12360;BME280;6244;51.460;7.090;2022-11-15T16:32:41;49026.38;;;-141.68;55.80
12360;BME280;6244;51.460;7.090;2022-11-15T16:37:38;49026.38;;;-141.68;55.68
12360;BME280;6244;51.460;7.090;2022-11-15T16:42:37;49026.38;;;-141.68;55.86
12360;BME280;6244;51.460;7.090;2022-11-15T16:47:33;49024.41;;;-141.68;55.92
12360;BME280;6244;51.460;7.090;2022-11-15T16:52:30;49026.38;;;-141.68;56.08
12360;BME280;6244;51.460;7.090;2022-11-15T16:57:26;49024.41;;;-141.68;55.83
12360;BME280;6244;51.460;7.090;2022-11-15T17:02:24;49024.41;;;-141.68;56.12
12360;BME280;6244;51.460;7.090;2022-11-15T17:07:21;49026.38;;;-141.68;56.21
12360;BME280;6244;51.460;7.090;2022-11-15T17:12:19;49024.41;;;-141.68;56.25
12360;BME280;6244;51.460;7.090;2022-11-15T17:17:15;49024.41;;;-141.68;56.16
12360;BME280;6244;51.460;7.090;2022-11-15T17:22:13;49024.41;;;-141.68;56.29
12360;BME280;6244;51.460;7.090;2022-11-15T17:27:10;49024.41;;;-141.68;56.26
12360;BME280;6244;51.460;7.090;2022-11-15T17:32:07;49022.41;;;-141.68;56.26
12360;BME280;6244;51.460;7.090;2022-11-15T17:37:04;49024.41;;;-141.68;56.11
12360;BME280;6244;51.460;7.090;2022-11-15T17:42:02;49024.41;;;-141.68;56.22
12360;BME280;6244;51.460;7.090;2022-11-15T17:46:59;49024.41;;;-141.68;56.25
12360;BME280;6244;51.460;7.090;2022-11-15T17:51:56;49026.38;;;-141.68;56.19
12360;BME280;6244;51.460;7.090;2022-11-15T17:56:52;49024.41;;;-141.68;56.25
12360;BME280;6244;51.460;7.090;2022-11-15T18:01:50;49024.41;;;-141.68;56.15
12360;BME280;6244;51.460;7.090;2022-11-15T18:06:48;49026.38;;;-141.68;56.16
12360;BME280;6244;51.460;7.090;2022-11-15T18:11:44;49022.41;;;-141.68;56.17
12360;BME280;6244;51.460;7.090;2022-11-15T18:16:45;49024.41;;;-141.68;56.02
12360;BME280;6244;51.460;7.090;2022-11-15T18:21:44;49026.38;;;-141.68;56.15
12360;BME280;6244;51.460;7.090;2022-11-15T18:26:53;49026.38;;;-141.68;56.15
12360;BME280;6244;51.460;7.090;2022-11-15T18:31:49;49024.41;;;-141.68;56.34
12360;BME280;6244;51.460;7.090;2022-11-15T18:36:51;49024.41;;;-141.68;56.40
12360;BME280;6244;51.460;7.090;2022-11-15T18:41:48;49022.41;;;-141.68;56.83
12360;BME280;6244;51.460;7.090;2022-11-15T18:46:45;49026.38;;;-141.68;57.40
12360;BME280;6244;51.460;7.090;2022-11-15T18:51:42;49024.41;;;-141.68;57.79
12360;BME280;6244;51.460;7.090;2022-11-15T18:56:41;49024.41;;;-141.68;57.94
12360;BME280;6244;51.460;7.090;2022-11-15T19:01:39;49024.41;;;-141.68;57.88
12360;BME280;6244;51.460;7.090;2022-11-15T19:06:37;49026.38;;;-141.68;57.94
12360;BME280;6244;51.460;7.090;2022-11-15T19:11:35;49024.41;;;-141.68;58.28
12360;BME280;6244;51.460;7.090;2022-11-15T19:16:36;49024.41;;;-141.68;58.58
12360;BME280;6244;51.460;7.090;2022-11-15T19:21:33;49026.38;;;-141.68;58.94
12360;BME280;6244;51.460;7.090;2022-11-15T19:26:30;49026.38;;;-141.68;59.60
12360;BME280;6244;51.460;7.090;2022-11-15T19:31:28;49024.41;;;-141.68;59.78
12360;BME280;6244;51.460;7.090;2022-11-15T19:36:27;49024.41;;;-141.68;60.24
12360;BME280;6244;51.460;7.090;2022-11-15T19:41:26;49026.38;;;-141.68;61.01
12360;BME280;6244;51.460;7.090;2022-11-15T19:46:23;49026.38;;;-141.68;61.53
12360;BME280;6244;51.460;7.090;2022-11-15T19:51:22;49024.41;;;-141.68;62.13
12360;BME280;6244;51.460;7.090;2022-11-15T19:56:21;49024.41;;;-141.68;62.89
12360;BME280;6244;51.460;7.090;2022-11-15T20:01:19;49024.41;;;-141.68;63.93
12360;BME280;6244;51.460;7.090;2022-11-15T20:06:17;49024.41;;;-141.68;64.52
12360;BME280;6244;51.460;7.090;2022-11-15T20:11:15;49026.38;;;-141.68;64.99
12360;BME280;6244;51.460;7.090;2022-11-15T20:16:16;49026.38;;;-141.68;65.29
12360;BME280;6244;51.460;7.090;2022-11-15T20:21:13;49026.38;;;-141.68;65.26
12360;BME280;6244;51.460;7.090;2022-11-15T20:26:11;49024.41;;;-141.68;65.10
12360;BME280;6244;51.460;7.090;2022-11-15T20:31:09;49026.38;;;-141.68;64.63
12360;BME280;6244;51.460;7.090;2022-11-15T20:36:09;49026.38;;;-141.68;64.81
12360;BME280;6244;51.460;7.090;2022-11-15T20:41:06;49024.41;;;-141.68;64.56
12360;BME280;6244;51.460;7.090;2022-11-15T20:46:03;49026.38;;;-141.68;64.66
12360;BME280;6244;51.460;7.090;2022-11-15T20:51:04;49026.38;;;-141.68;64.84
12360;BME280;6244;51.460;7.090;2022-11-15T20:56:05;49026.38;;;-141.68;65.26
12360;BME280;6244;51.460;7.090;2022-11-15T21:01:03;49024.41;;;-141.68;65.37
12360;BME280;6244;51.460;7.090;2022-11-15T21:05:59;49026.38;;;-141.68;65.41
12360;BME280;6244;51.460;7.090;2022-11-15T21:10:56;49024.41;;;-141.68;65.33
12360;BME280;6244;51.460;7.090;2022-11-15T21:16:11;49024.41;;;-141.68;65.15
12360;BME280;6244;51.460;7.090;2022-11-15T21:21:08;49024.41;;;-141.68;64.84
12360;BME280;6244;51.460;7.090;2022-11-15T21:26:04;49024.41;;;-141.68;64.67
12360;BME280;6244;51.460;7.090;2022-11-15T21:31:01;49022.41;;;-141.68;64.66
12360;BME280;6244;51.460;7.090;2022-11-15T21:35:59;49026.38;;;-141.68;64.53
12360;BME280;6244;51.460;7.090;2022-11-15T21:40:56;49024.41;;;-141.68;64.49
12360;BME280;6244;51.460;7.090;2022-11-15T21:45:55;49024.41;;;-141.68;64.44
12360;BME280;6244;51.460;7.090;2022-11-15T21:50:55;49024.41;;;-141.68;64.32
12360;BME280;6244;51.460;7.090;2022-11-15T21:55:53;49024.41;;;-141.68;64.58
12360;BME280;6244;51.460;7.090;2022-11-15T22:00:50;49026.38;;;-141.68;64.70
12360;BME280;6244;51.460;7.090;2022-11-15T22:06:06;49026.38;;;-141.68;64.89
12360;BME280;6244;51.460;7.090;2022-11-15T22:11:04;49024.41;;;-141.68;65.28
12360;BME280;6244;51.460;7.090;2022-11-15T22:16:01;49024.41;;;-141.68;65.82
12360;BME280;6244;51.460;7.090;2022-11-15T22:20:59;49026.38;;;-141.68;66.10
12360;BME280;6244;51.460;7.090;2022-11-15T22:25:56;49026.38;;;-141.68;66.23
12360;BME280;6244;51.460;7.090;2022-11-15T22:30:55;49024.41;;;-141.68;66.27
12360;BME280;6244;51.460;7.090;2022-11-15T22:35:52;49024.41;;;-141.68;66.15
12360;BME280;6244;51.460;7.090;2022-11-15T22:40:49;49026.38;;;-141.68;66.08
12360;BME280;6244;51.460;7.090;2022-11-15T22:45:50;49024.41;;;-141.68;66.17
12360;BME280;6244;51.460;7.090;2022-11-15T22:50:48;49024.41;;;-141.68;66.42
12360;BME280;6244;51.460;7.090;2022-11-15T22:55:49;49026.38;;;-141.68;66.62
12360;BME280;6244;51.460;7.090;2022-11-15T23:00:47;49024.41;;;-141.68;66.56
12360;BME280;6244;51.460;7.090;2022-11-15T23:05:44;49026.38;;;-141.68;66.50
12360;BME280;6244;51.460;7.090;2022-11-15T23:10:42;49022.41;;;-141.68;66.35
12360;BME280;6244;51.460;7.090;2022-11-15T23:16:02;49024.41;;;-141.68;66.65
12360;BME280;6244;51.460;7.090;2022-11-15T23:21:18;49026.38;;;-141.68;66.76
12360;BME280;6244;51.460;7.090;2022-11-15T23:26:38;49024.41;;;-141.68;67.43
12360;BME280;6244;51.460;7.090;2022-11-15T23:31:35;49024.41;;;-141.68;67.65
12360;BME280;6244;51.460;7.090;2022-11-15T23:36:49;49026.38;;;-141.68;67.93
12360;BME280;6244;51.460;7.090;2022-11-15T23:41:47;49024.41;;;-141.68;68.17
12360;BME280;6244;51.460;7.090;2022-11-15T23:46:43;49026.38;;;-141.68;68.34
12360;BME280;6244;51.460;7.090;2022-11-15T23:51:40;49026.38;;;-141.68;68.51
12360;BME280;6244;51.460;7.090;2022-11-15T23:56:37;49024.41;;;-141.68;69.03
